sensor_id;sensor_type;location;lat;lon;timestamp;P1;durP1;ratioP1;P2;durP2;ratioP2
55776;SDS011;54079;44.540;18.784;2022-07-23T00:00:53;5.05;;;2.35;;
55776;SDS011;54079;44.540;18.784;2022-07-23T00:03:19;4.10;;;2.22;;
55776;SDS011;54079;44.540;18.784;2022-07-23T00:05:45;6.78;;;2.25;;
55776;SDS011;54079;44.540;18.784;2022-07-23T00:08:11;2.95;;;2.03;;
55776;SDS011;54079;44.540;18.784;2022-07-23T00:10:37;4.75;;;2.58;;
55776;SDS011;54079;44.540;18.784;2022-07-23T00:13:03;4.20;;;2.28;;
55776;SDS011;54079;44.540;18.784;2022-07-23T00:15:29;3.25;;;2.17;;
55776;SDS011;54079;44.540;18.784;2022-07-23T00:17:55;4.72;;;2.25;;
55776;SDS011;54079;44.540;18.784;2022-07-23T00:20:21;3.00;;;2.03;;
55776;SDS011;54079;44.540;18.784;2022-07-23T00:22:48;3.97;;;2.45;;
55776;SDS011;54079;44.540;18.784;2022-07-23T00:25:15;3.63;;;2.67;;
55776;SDS011;54079;44.540;18.784;2022-07-23T00:27:41;3.47;;;2.35;;
55776;SDS011;54079;44.540;18.784;2022-07-23T00:30:07;3.55;;;2.00;;
55776;SDS011;54079;44.540;18.784;2022-07-23T00:32:55;4.20;;;2.10;;
55776;SDS011;54079;44.540;18.784;2022-07-23T00:35:22;3.33;;;2.33;;
55776;SDS011;54079;44.540;18.784;2022-07-23T00:37:49;4.05;;;2.20;;
55776;SDS011;54079;44.540;18.784;2022-07-23T00:40:15;3.75;;;2.00;;
55776;SDS011;54079;44.540;18.784;2022-07-23T00:42:41;4.15;;;2.00;;
55776;SDS011;54079;44.540;18.784;2022-07-23T00:45:07;4.95;;;1.92;;
55776;SDS011;54079;44.540;18.784;2022-07-23T00:47:34;3.83;;;2.53;;
55776;SDS011;54079;44.540;18.784;2022-07-23T00:50:00;2.30;;;2.05;;
55776;SDS011;54079;44.540;18.784;2022-07-23T00:52:26;3.83;;;2.30;;
55776;SDS011;54079;44.540;18.784;2022-07-23T00:54:52;3.42;;;2.00;;
55776;SDS011;54079;44.540;18.784;2022-07-23T00:57:18;4.43;;;2.35;;
55776;SDS011;54079;44.540;18.784;2022-07-23T00:59:44;4.40;;;2.28;;
55776;SDS011;54079;44.540;18.784;2022-07-23T01:02:10;3.00;;;2.40;;
55776;SDS011;54079;44.540;18.784;2022-07-23T01:04:36;5.05;;;2.72;;
55776;SDS011;54079;44.540;18.784;2022-07-23T01:07:02;2.58;;;1.95;;
55776;SDS011;54079;44.540;18.784;2022-07-23T01:09:28;3.47;;;2.30;;
55776;SDS011;54079;44.540;18.784;2022-07-23T01:11:55;3.05;;;2.47;;
55776;SDS011;54079;44.540;18.784;2022-07-23T01:14:22;3.85;;;2.08;;
55776;SDS011;54079;44.540;18.784;2022-07-23T01:16:48;2.95;;;2.30;;
55776;SDS011;54079;44.540;18.784;2022-07-23T01:19:15;4.15;;;2.78;;
55776;SDS011;54079;44.540;18.784;2022-07-23T01:21:44;3.97;;;2.13;;
55776;SDS011;54079;44.540;18.784;2022-07-23T01:24:12;3.67;;;2.20;;
55776;SDS011;54079;44.540;18.784;2022-07-23T01:26:40;3.15;;;2.53;;
55776;SDS011;54079;44.540;18.784;2022-07-23T01:29:09;3.38;;;2.20;;
55776;SDS011;54079;44.540;18.784;2022-07-23T01:31:36;5.75;;;2.67;;
55776;SDS011;54079;44.540;18.784;2022-07-23T01:34:02;4.07;;;2.10;;
55776;SDS011;54079;44.540;18.784;2022-07-23T01:36:29;4.47;;;4.07;;
55776;SDS011;54079;44.540;18.784;2022-07-23T01:38:55;3.13;;;2.30;;
55776;SDS011;54079;44.540;18.784;2022-07-23T01:41:21;6.25;;;2.95;;
55776;SDS011;54079;44.540;18.784;2022-07-23T01:43:47;3.65;;;2.45;;
55776;SDS011;54079;44.540;18.784;2022-07-23T01:46:13;5.32;;;2.92;;
55776;SDS011;54079;44.540;18.784;2022-07-23T01:48:39;3.33;;;2.33;;
55776;SDS011;54079;44.540;18.784;2022-07-23T01:51:05;6.38;;;2.55;;
55776;SDS011;54079;44.540;18.784;2022-07-23T01:53:31;2.55;;;2.35;;
55776;SDS011;54079;44.540;18.784;2022-07-23T01:55:58;2.83;;;2.40;;
55776;SDS011;54079;44.540;18.784;2022-07-23T01:58:25;4.55;;;2.80;;
55776;SDS011;54079;44.540;18.784;2022-07-23T02:00:51;5.70;;;2.72;;
55776;SDS011;54079;44.540;18.784;2022-07-23T02:03:18;4.40;;;2.75;;
55776;SDS011;54079;44.540;18.784;2022-07-23T02:05:44;3.60;;;2.90;;
55776;SDS011;54079;44.540;18.784;2022-07-23T02:08:10;4.50;;;2.50;;
55776;SDS011;54079;44.540;18.784;2022-07-23T02:10:36;4.90;;;3.05;;
55776;SDS011;54079;44.540;18.784;2022-07-23T02:13:02;6.28;;;2.67;;
55776;SDS011;54079;44.540;18.784;2022-07-23T02:15:28;3.05;;;2.20;;
55776;SDS011;54079;44.540;18.784;2022-07-23T02:17:55;3.38;;;2.45;;
55776;SDS011;54079;44.540;18.784;2022-07-23T02:20:21;3.40;;;2.22;;
55776;SDS011;54079;44.540;18.784;2022-07-23T02:22:47;3.35;;;2.38;;
55776;SDS011;54079;44.540;18.784;2022-07-23T02:25:14;5.20;;;3.22;;
55776;SDS011;54079;44.540;18.784;2022-07-23T02:27:40;4.50;;;2.90;;
55776;SDS011;54079;44.540;18.784;2022-07-23T02:30:06;5.75;;;3.13;;
55776;SDS011;54079;44.540;18.784;2022-07-23T02:32:33;5.05;;;3.03;;
55776;SDS011;54079;44.540;18.784;2022-07-23T02:34:59;4.55;;;2.00;;
55776;SDS011;54079;44.540;18.784;2022-07-23T02:37:25;3.15;;;2.50;;
55776;SDS011;54079;44.540;18.784;2022-07-23T02:39:51;4.97;;;2.95;;
55776;SDS011;54079;44.540;18.784;2022-07-23T02:42:17;4.72;;;2.65;;
55776;SDS011;54079;44.540;18.784;2022-07-23T02:44:43;3.70;;;2.50;;
55776;SDS011;54079;44.540;18.784;2022-07-23T02:47:09;5.90;;;2.60;;
55776;SDS011;54079;44.540;18.784;2022-07-23T02:49:35;5.80;;;2.22;;
55776;SDS011;54079;44.540;18.784;2022-07-23T02:52:01;3.70;;;2.95;;
55776;SDS011;54079;44.540;18.784;2022-07-23T02:54:27;4.38;;;2.15;;
55776;SDS011;54079;44.540;18.784;2022-07-23T02:56:53;5.07;;;2.45;;
55776;SDS011;54079;44.540;18.784;2022-07-23T02:59:19;3.90;;;2.63;;
55776;SDS011;54079;44.540;18.784;2022-07-23T03:01:45;5.75;;;3.03;;
55776;SDS011;54079;44.540;18.784;2022-07-23T03:04:11;4.32;;;2.67;;
55776;SDS011;54079;44.540;18.784;2022-07-23T03:06:37;5.03;;;2.38;;
55776;SDS011;54079;44.540;18.784;2022-07-23T03:09:05;5.22;;;3.00;;
55776;SDS011;54079;44.540;18.784;2022-07-23T03:11:31;4.50;;;2.50;;
55776;SDS011;54079;44.540;18.784;2022-07-23T03:13:57;2.80;;;2.38;;
55776;SDS011;54079;44.540;18.784;2022-07-23T03:16:23;3.33;;;2.38;;
55776;SDS011;54079;44.540;18.784;2022-07-23T03:18:49;3.63;;;3.33;;
55776;SDS011;54079;44.540;18.784;2022-07-23T03:21:14;5.03;;;2.78;;
55776;SDS011;54079;44.540;18.784;2022-07-23T03:23:40;3.88;;;2.75;;
55776;SDS011;54079;44.540;18.784;2022-07-23T03:26:06;4.00;;;3.22;;
55776;SDS011;54079;44.540;18.784;2022-07-23T03:28:32;2.97;;;2.53;;
55776;SDS011;54079;44.540;18.784;2022-07-23T03:30:58;6.55;;;2.40;;
55776;SDS011;54079;44.540;18.784;2022-07-23T03:33:24;3.28;;;2.72;;
55776;SDS011;54079;44.540;18.784;2022-07-23T03:35:50;4.68;;;2.92;;
55776;SDS011;54079;44.540;18.784;2022-07-23T03:38:16;3.20;;;2.65;;
55776;SDS011;54079;44.540;18.784;2022-07-23T03:40:42;4.57;;;2.70;;
55776;SDS011;54079;44.540;18.784;2022-07-23T03:43:08;6.97;;;3.35;;
55776;SDS011;54079;44.540;18.784;2022-07-23T03:45:34;8.40;;;3.70;;
55776;SDS011;54079;44.540;18.784;2022-07-23T03:48:01;5.13;;;2.90;;
55776;SDS011;54079;44.540;18.784;2022-07-23T03:50:27;5.10;;;2.90;;
55776;SDS011;54079;44.540;18.784;2022-07-23T03:52:53;3.00;;;2.65;;
55776;SDS011;54079;44.540;18.784;2022-07-23T03:55:19;3.65;;;2.40;;
55776;SDS011;54079;44.540;18.784;2022-07-23T03:57:45;7.38;;;3.00;;
55776;SDS011;54079;44.540;18.784;2022-07-23T04:00:11;6.70;;;4.90;;
55776;SDS011;54079;44.540;18.784;2022-07-23T04:02:38;5.28;;;3.10;;
55776;SDS011;54079;44.540;18.784;2022-07-23T04:05:05;5.70;;;2.67;;
55776;SDS011;54079;44.540;18.784;2022-07-23T04:07:31;3.25;;;2.95;;
55776;SDS011;54079;44.540;18.784;2022-07-23T04:09:57;3.95;;;2.65;;
55776;SDS011;54079;44.540;18.784;2022-07-23T04:12:24;3.95;;;3.05;;
55776;SDS011;54079;44.540;18.784;2022-07-23T04:14:50;5.35;;;3.05;;
55776;SDS011;54079;44.540;18.784;2022-07-23T04:17:16;5.18;;;2.58;;
55776;SDS011;54079;44.540;18.784;2022-07-23T04:19:42;3.33;;;2.83;;
55776;SDS011;54079;44.540;18.784;2022-07-23T04:22:09;3.65;;;2.60;;
55776;SDS011;54079;44.540;18.784;2022-07-23T04:24:36;3.63;;;2.90;;
55776;SDS011;54079;44.540;18.784;2022-07-23T04:27:02;3.88;;;3.15;;
55776;SDS011;54079;44.540;18.784;2022-07-23T04:29:28;7.78;;;3.55;;
55776;SDS011;54079;44.540;18.784;2022-07-23T04:31:55;3.95;;;2.78;;
55776;SDS011;54079;44.540;18.784;2022-07-23T04:34:21;3.75;;;2.75;;
55776;SDS011;54079;44.540;18.784;2022-07-23T04:36:47;2.67;;;2.40;;
55776;SDS011;54079;44.540;18.784;2022-07-23T04:39:13;6.70;;;2.58;;
55776;SDS011;54079;44.540;18.784;2022-07-23T04:41:39;4.68;;;3.00;;
55776;SDS011;54079;44.540;18.784;2022-07-23T04:44:05;7.18;;;3.58;;
55776;SDS011;54079;44.540;18.784;2022-07-23T04:46:31;3.20;;;2.70;;
55776;SDS011;54079;44.540;18.784;2022-07-23T04:48:57;3.03;;;2.70;;
55776;SDS011;54079;44.540;18.784;2022-07-23T04:51:23;9.23;;;3.30;;
55776;SDS011;54079;44.540;18.784;2022-07-23T04:53:49;4.00;;;2.75;;
55776;SDS011;54079;44.540;18.784;2022-07-23T04:56:15;3.80;;;2.78;;
55776;SDS011;54079;44.540;18.784;2022-07-23T04:58:41;3.17;;;2.80;;
55776;SDS011;54079;44.540;18.784;2022-07-23T05:01:07;3.55;;;3.13;;
55776;SDS011;54079;44.540;18.784;2022-07-23T05:03:33;4.70;;;3.33;;
55776;SDS011;54079;44.540;18.784;2022-07-23T05:05:59;3.53;;;3.22;;
55776;SDS011;54079;44.540;18.784;2022-07-23T05:08:25;6.40;;;3.25;;
55776;SDS011;54079;44.540;18.784;2022-07-23T05:10:51;5.85;;;3.53;;
55776;SDS011;54079;44.540;18.784;2022-07-23T05:13:17;10.52;;;3.85;;
55776;SDS011;54079;44.540;18.784;2022-07-23T05:15:44;3.17;;;2.88;;
55776;SDS011;54079;44.540;18.784;2022-07-23T05:18:10;5.88;;;3.45;;
55776;SDS011;54079;44.540;18.784;2022-07-23T05:20:36;3.30;;;3.00;;
55776;SDS011;54079;44.540;18.784;2022-07-23T05:23:02;4.75;;;3.03;;
55776;SDS011;54079;44.540;18.784;2022-07-23T05:25:28;3.78;;;3.38;;
55776;SDS011;54079;44.540;18.784;2022-07-23T05:27:54;4.68;;;3.47;;
55776;SDS011;54079;44.540;18.784;2022-07-23T05:30:20;4.00;;;3.60;;
55776;SDS011;54079;44.540;18.784;2022-07-23T05:32:46;5.07;;;3.30;;
55776;SDS011;54079;44.540;18.784;2022-07-23T05:35:12;4.03;;;3.53;;
55776;SDS011;54079;44.540;18.784;2022-07-23T05:37:38;9.38;;;4.57;;
55776;SDS011;54079;44.540;18.784;2022-07-23T05:40:05;3.55;;;3.25;;
55776;SDS011;54079;44.540;18.784;2022-07-23T05:42:37;5.78;;;4.65;;
55776;SDS011;54079;44.540;18.784;2022-07-23T05:45:05;6.38;;;3.45;;
55776;SDS011;54079;44.540;18.784;2022-07-23T05:50:07;4.72;;;4.13;;
55776;SDS011;54079;44.540;18.784;2022-07-23T05:52:34;5.93;;;4.05;;
55776;SDS011;54079;44.540;18.784;2022-07-23T05:55:00;3.50;;;3.20;;
55776;SDS011;54079;44.540;18.784;2022-07-23T05:57:26;3.72;;;3.47;;
55776;SDS011;54079;44.540;18.784;2022-07-23T05:59:52;3.75;;;3.40;;
55776;SDS011;54079;44.540;18.784;2022-07-23T06:02:17;4.47;;;3.28;;
55776;SDS011;54079;44.540;18.784;2022-07-23T06:04:43;4.05;;;3.47;;
55776;SDS011;54079;44.540;18.784;2022-07-23T06:07:10;3.22;;;2.92;;
55776;SDS011;54079;44.540;18.784;2022-07-23T06:09:36;4.13;;;3.65;;
55776;SDS011;54079;44.540;18.784;2022-07-23T06:12:02;4.35;;;3.95;;
55776;SDS011;54079;44.540;18.784;2022-07-23T06:14:28;6.13;;;3.40;;
55776;SDS011;54079;44.540;18.784;2022-07-23T06:16:54;4.78;;;3.03;;
55776;SDS011;54079;44.540;18.784;2022-07-23T06:19:20;7.82;;;7.13;;
55776;SDS011;54079;44.540;18.784;2022-07-23T06:21:46;4.47;;;4.07;;
55776;SDS011;54079;44.540;18.784;2022-07-23T06:24:12;6.60;;;6.00;;
55776;SDS011;54079;44.540;18.784;2022-07-23T06:26:38;5.55;;;4.55;;
55776;SDS011;54079;44.540;18.784;2022-07-23T06:29:04;6.00;;;3.60;;
55776;SDS011;54079;44.540;18.784;2022-07-23T06:31:30;5.53;;;5.10;;
55776;SDS011;54079;44.540;18.784;2022-07-23T06:33:56;6.07;;;5.47;;
55776;SDS011;54079;44.540;18.784;2022-07-23T06:36:22;4.80;;;4.45;;
55776;SDS011;54079;44.540;18.784;2022-07-23T06:38:48;5.43;;;4.15;;
55776;SDS011;54079;44.540;18.784;2022-07-23T06:41:14;5.70;;;4.45;;
55776;SDS011;54079;44.540;18.784;2022-07-23T06:43:39;7.22;;;5.15;;
55776;SDS011;54079;44.540;18.784;2022-07-23T06:46:05;5.10;;;4.22;;
55776;SDS011;54079;44.540;18.784;2022-07-23T06:48:31;9.48;;;8.50;;
55776;SDS011;54079;44.540;18.784;2022-07-23T06:50:59;10.60;;;8.82;;
55776;SDS011;54079;44.540;18.784;2022-07-23T06:53:25;19.63;;;7.90;;
55776;SDS011;54079;44.540;18.784;2022-07-23T06:55:51;14.90;;;7.78;;
55776;SDS011;54079;44.540;18.784;2022-07-23T06:58:17;22.15;;;7.90;;
55776;SDS011;54079;44.540;18.784;2022-07-23T07:00:44;5.88;;;3.97;;
55776;SDS011;54079;44.540;18.784;2022-07-23T07:03:10;12.43;;;6.57;;
55776;SDS011;54079;44.540;18.784;2022-07-23T07:05:36;7.93;;;5.07;;
55776;SDS011;54079;44.540;18.784;2022-07-23T07:08:02;12.73;;;6.30;;
55776;SDS011;54079;44.540;18.784;2022-07-23T07:10:28;6.30;;;4.68;;
55776;SDS011;54079;44.540;18.784;2022-07-23T07:12:54;5.57;;;3.83;;
55776;SDS011;54079;44.540;18.784;2022-07-23T07:15:20;6.80;;;4.95;;
55776;SDS011;54079;44.540;18.784;2022-07-23T07:17:46;4.82;;;4.18;;
55776;SDS011;54079;44.540;18.784;2022-07-23T07:20:12;5.20;;;4.13;;
55776;SDS011;54079;44.540;18.784;2022-07-23T07:22:38;10.55;;;4.13;;
55776;SDS011;54079;44.540;18.784;2022-07-23T07:25:04;5.72;;;4.55;;
55776;SDS011;54079;44.540;18.784;2022-07-23T07:27:31;5.05;;;4.53;;
55776;SDS011;54079;44.540;18.784;2022-07-23T07:29:57;4.60;;;4.20;;
55776;SDS011;54079;44.540;18.784;2022-07-23T07:32:22;7.40;;;5.00;;
55776;SDS011;54079;44.540;18.784;2022-07-23T07:34:49;6.63;;;4.80;;
55776;SDS011;54079;44.540;18.784;2022-07-23T07:37:14;5.25;;;4.38;;
55776;SDS011;54079;44.540;18.784;2022-07-23T07:39:40;4.93;;;4.38;;
55776;SDS011;54079;44.540;18.784;2022-07-23T07:42:06;6.65;;;4.60;;
55776;SDS011;54079;44.540;18.784;2022-07-23T07:44:32;4.68;;;4.28;;
55776;SDS011;54079;44.540;18.784;2022-07-23T07:46:58;4.82;;;4.35;;
55776;SDS011;54079;44.540;18.784;2022-07-23T07:49:24;6.20;;;3.95;;
55776;SDS011;54079;44.540;18.784;2022-07-23T07:51:50;6.47;;;3.80;;
55776;SDS011;54079;44.540;18.784;2022-07-23T07:54:16;4.88;;;4.32;;
55776;SDS011;54079;44.540;18.784;2022-07-23T07:56:42;5.32;;;3.70;;
55776;SDS011;54079;44.540;18.784;2022-07-23T07:59:08;3.42;;;3.00;;
55776;SDS011;54079;44.540;18.784;2022-07-23T08:01:34;4.10;;;3.63;;
55776;SDS011;54079;44.540;18.784;2022-07-23T08:03:59;6.07;;;3.65;;
55776;SDS011;54079;44.540;18.784;2022-07-23T08:06:25;3.97;;;3.25;;
55776;SDS011;54079;44.540;18.784;2022-07-23T08:08:51;5.43;;;3.55;;
55776;SDS011;54079;44.540;18.784;2022-07-23T08:11:17;8.75;;;3.40;;
55776;SDS011;54079;44.540;18.784;2022-07-23T08:13:43;5.28;;;3.60;;
55776;SDS011;54079;44.540;18.784;2022-07-23T08:16:10;7.40;;;3.70;;
55776;SDS011;54079;44.540;18.784;2022-07-23T08:18:45;4.40;;;3.78;;
55776;SDS011;54079;44.540;18.784;2022-07-23T08:21:11;3.97;;;3.30;;
55776;SDS011;54079;44.540;18.784;2022-07-23T08:23:37;5.32;;;3.95;;
55776;SDS011;54079;44.540;18.784;2022-07-23T08:26:03;6.50;;;4.25;;
55776;SDS011;54079;44.540;18.784;2022-07-23T08:28:29;4.25;;;3.42;;
55776;SDS011;54079;44.540;18.784;2022-07-23T08:30:58;4.15;;;3.72;;
55776;SDS011;54079;44.540;18.784;2022-07-23T08:33:24;5.03;;;4.55;;
55776;SDS011;54079;44.540;18.784;2022-07-23T08:35:50;3.92;;;3.53;;
55776;SDS011;54079;44.540;18.784;2022-07-23T08:38:21;5.05;;;3.47;;
55776;SDS011;54079;44.540;18.784;2022-07-23T08:40:48;4.55;;;3.20;;
55776;SDS011;54079;44.540;18.784;2022-07-23T08:43:18;4.13;;;3.70;;
55776;SDS011;54079;44.540;18.784;2022-07-23T08:45:49;4.78;;;3.88;;
55776;SDS011;54079;44.540;18.784;2022-07-23T08:48:17;6.07;;;4.00;;
55776;SDS011;54079;44.540;18.784;2022-07-23T08:50:49;6.00;;;3.58;;
55776;SDS011;54079;44.540;18.784;2022-07-23T08:53:16;4.05;;;3.45;;
55776;SDS011;54079;44.540;18.784;2022-07-23T08:55:47;5.93;;;3.78;;
55776;SDS011;54079;44.540;18.784;2022-07-23T08:58:14;4.13;;;3.78;;
55776;SDS011;54079;44.540;18.784;2022-07-23T09:00:41;6.90;;;3.25;;
55776;SDS011;54079;44.540;18.784;2022-07-23T09:03:10;3.10;;;2.90;;
55776;SDS011;54079;44.540;18.784;2022-07-23T09:05:42;3.20;;;3.00;;
55776;SDS011;54079;44.540;18.784;2022-07-23T09:13:30;6.20;;;3.70;;
55776;SDS011;54079;44.540;18.784;2022-07-23T09:16:04;3.40;;;3.10;;
55776;SDS011;54079;44.540;18.784;2022-07-23T09:18:36;5.63;;;3.80;;
55776;SDS011;54079;44.540;18.784;2022-07-23T09:28:54;5.13;;;4.10;;
55776;SDS011;54079;44.540;18.784;2022-07-23T09:31:20;4.18;;;3.78;;
55776;SDS011;54079;44.540;18.784;2022-07-23T09:33:48;5.45;;;4.28;;
55776;SDS011;54079;44.540;18.784;2022-07-23T09:36:14;3.80;;;3.13;;
55776;SDS011;54079;44.540;18.784;2022-07-23T09:38:50;3.63;;;3.33;;
55776;SDS011;54079;44.540;18.784;2022-07-23T09:41:16;6.18;;;3.70;;
55776;SDS011;54079;44.540;18.784;2022-07-23T09:43:42;4.68;;;4.03;;
55776;SDS011;54079;44.540;18.784;2022-07-23T09:48:51;5.68;;;3.50;;
55776;SDS011;54079;44.540;18.784;2022-07-23T09:51:18;4.95;;;3.40;;
55776;SDS011;54079;44.540;18.784;2022-07-23T09:53:53;5.00;;;3.75;;
55776;SDS011;54079;44.540;18.784;2022-07-23T09:56:19;4.05;;;3.65;;
55776;SDS011;54079;44.540;18.784;2022-07-23T09:58:49;6.15;;;3.22;;
55776;SDS011;54079;44.540;18.784;2022-07-23T10:01:27;3.30;;;2.95;;
55776;SDS011;54079;44.540;18.784;2022-07-23T10:03:54;7.05;;;3.35;;
55776;SDS011;54079;44.540;18.784;2022-07-23T10:06:20;3.50;;;3.20;;
55776;SDS011;54079;44.540;18.784;2022-07-23T10:08:47;3.80;;;3.42;;
55776;SDS011;54079;44.540;18.784;2022-07-23T10:11:15;3.80;;;3.50;;
55776;SDS011;54079;44.540;18.784;2022-07-23T10:13:42;6.68;;;4.07;;
55776;SDS011;54079;44.540;18.784;2022-07-23T10:16:17;4.07;;;3.65;;
55776;SDS011;54079;44.540;18.784;2022-07-23T10:18:45;4.13;;;3.72;;
55776;SDS011;54079;44.540;18.784;2022-07-23T10:21:12;3.70;;;3.42;;
55776;SDS011;54079;44.540;18.784;2022-07-23T10:24:01;4.72;;;3.70;;
55776;SDS011;54079;44.540;18.784;2022-07-23T10:37:35;7.47;;;3.90;;
55776;SDS011;54079;44.540;18.784;2022-07-23T10:40:15;7.15;;;4.15;;
55776;SDS011;54079;44.540;18.784;2022-07-23T10:42:47;4.00;;;3.60;;
55776;SDS011;54079;44.540;18.784;2022-07-23T10:45:23;4.80;;;3.83;;
55776;SDS011;54079;44.540;18.784;2022-07-23T10:48:19;3.63;;;3.33;;
55776;SDS011;54079;44.540;18.784;2022-07-23T10:51:08;4.30;;;3.95;;
55776;SDS011;54079;44.540;18.784;2022-07-23T10:59:19;5.65;;;4.35;;
55776;SDS011;54079;44.540;18.784;2022-07-23T11:01:46;4.00;;;3.70;;
55776;SDS011;54079;44.540;18.784;2022-07-23T11:04:12;6.82;;;5.32;;
55776;SDS011;54079;44.540;18.784;2022-07-23T11:15:07;4.50;;;3.50;;
55776;SDS011;54079;44.540;18.784;2022-07-23T11:17:35;7.35;;;4.03;;
55776;SDS011;54079;44.540;18.784;2022-07-23T11:25:11;4.47;;;3.95;;
55776;SDS011;54079;44.540;18.784;2022-07-23T11:27:43;3.78;;;3.47;;
55776;SDS011;54079;44.540;18.784;2022-07-23T11:30:36;4.80;;;3.70;;
55776;SDS011;54079;44.540;18.784;2022-07-23T11:35:36;4.35;;;3.95;;
55776;SDS011;54079;44.540;18.784;2022-07-23T11:38:14;4.88;;;4.30;;
55776;SDS011;54079;44.540;18.784;2022-07-23T11:40:44;3.95;;;3.65;;
55776;SDS011;54079;44.540;18.784;2022-07-23T11:43:12;3.80;;;3.50;;
55776;SDS011;54079;44.540;18.784;2022-07-23T11:45:40;4.22;;;3.83;;
55776;SDS011;54079;44.540;18.784;2022-07-23T11:48:09;4.30;;;3.97;;
55776;SDS011;54079;44.540;18.784;2022-07-23T11:50:42;4.07;;;3.78;;
55776;SDS011;54079;44.540;18.784;2022-07-23T11:53:09;4.13;;;3.67;;
55776;SDS011;54079;44.540;18.784;2022-07-23T11:55:34;5.97;;;4.95;;
55776;SDS011;54079;44.540;18.784;2022-07-23T11:58:01;7.03;;;4.47;;
55776;SDS011;54079;44.540;18.784;2022-07-23T12:00:28;4.57;;;4.00;;
55776;SDS011;54079;44.540;18.784;2022-07-23T12:02:56;4.97;;;4.47;;
55776;SDS011;54079;44.540;18.784;2022-07-23T12:05:27;5.53;;;4.50;;
55776;SDS011;54079;44.540;18.784;2022-07-23T12:07:58;4.78;;;3.83;;
55776;SDS011;54079;44.540;18.784;2022-07-23T12:15:26;4.50;;;4.15;;
55776;SDS011;54079;44.540;18.784;2022-07-23T12:17:56;5.25;;;4.35;;
55776;SDS011;54079;44.540;18.784;2022-07-23T12:20:25;5.53;;;4.65;;
55776;SDS011;54079;44.540;18.784;2022-07-23T12:22:55;5.63;;;4.00;;
55776;SDS011;54079;44.540;18.784;2022-07-23T12:25:23;5.93;;;3.95;;
55776;SDS011;54079;44.540;18.784;2022-07-23T12:30:40;4.93;;;4.63;;
55776;SDS011;54079;44.540;18.784;2022-07-23T12:33:09;6.32;;;3.80;;
55776;SDS011;54079;44.540;18.784;2022-07-23T12:35:37;5.25;;;4.18;;
55776;SDS011;54079;44.540;18.784;2022-07-23T12:38:17;5.18;;;4.68;;
55776;SDS011;54079;44.540;18.784;2022-07-23T12:40:46;4.72;;;4.32;;
55776;SDS011;54079;44.540;18.784;2022-07-23T12:43:21;4.60;;;4.20;;
55776;SDS011;54079;44.540;18.784;2022-07-23T12:48:17;5.13;;;4.68;;
55776;SDS011;54079;44.540;18.784;2022-07-23T12:50:50;5.05;;;4.57;;
55776;SDS011;54079;44.540;18.784;2022-07-23T12:53:22;4.55;;;4.15;;
55776;SDS011;54079;44.540;18.784;2022-07-23T12:55:58;5.93;;;4.32;;
55776;SDS011;54079;44.540;18.784;2022-07-23T12:58:39;7.25;;;3.88;;
55776;SDS011;54079;44.540;18.784;2022-07-23T13:01:07;4.05;;;3.75;;
55776;SDS011;54079;44.540;18.784;2022-07-23T13:03:40;3.88;;;3.58;;
55776;SDS011;54079;44.540;18.784;2022-07-23T13:06:07;4.38;;;4.07;;
55776;SDS011;54079;44.540;18.784;2022-07-23T13:08:35;4.18;;;3.78;;
55776;SDS011;54079;44.540;18.784;2022-07-23T13:11:03;4.53;;;4.13;;
55776;SDS011;54079;44.540;18.784;2022-07-23T13:13:31;5.03;;;4.53;;
55776;SDS011;54079;44.540;18.784;2022-07-23T13:15:58;5.35;;;4.95;;
55776;SDS011;54079;44.540;18.784;2022-07-23T13:18:25;4.65;;;4.32;;
55776;SDS011;54079;44.540;18.784;2022-07-23T13:20:52;4.97;;;4.57;;
55776;SDS011;54079;44.540;18.784;2022-07-23T13:23:19;5.30;;;4.82;;
55776;SDS011;54079;44.540;18.784;2022-07-23T13:25:48;5.10;;;4.60;;
55776;SDS011;54079;44.540;18.784;2022-07-23T13:28:14;7.45;;;4.97;;
55776;SDS011;54079;44.540;18.784;2022-07-23T13:30:42;4.60;;;4.30;;
55776;SDS011;54079;44.540;18.784;2022-07-23T13:33:08;5.40;;;4.90;;
55776;SDS011;54079;44.540;18.784;2022-07-23T13:35:35;5.55;;;4.32;;
55776;SDS011;54079;44.540;18.784;2022-07-23T13:38:03;5.80;;;4.50;;
55776;SDS011;54079;44.540;18.784;2022-07-23T13:40:32;8.00;;;4.60;;
55776;SDS011;54079;44.540;18.784;2022-07-23T13:43:01;5.93;;;4.68;;
55776;SDS011;54079;44.540;18.784;2022-07-23T13:45:27;5.03;;;4.72;;
55776;SDS011;54079;44.540;18.784;2022-07-23T13:47:53;5.32;;;4.82;;
55776;SDS011;54079;44.540;18.784;2022-07-23T13:50:19;6.22;;;4.80;;
55776;SDS011;54079;44.540;18.784;2022-07-23T13:52:45;5.38;;;4.88;;
55776;SDS011;54079;44.540;18.784;2022-07-23T13:55:11;5.55;;;5.05;;
55776;SDS011;54079;44.540;18.784;2022-07-23T13:57:37;6.38;;;4.82;;
55776;SDS011;54079;44.540;18.784;2022-07-23T14:00:03;5.72;;;5.28;;
55776;SDS011;54079;44.540;18.784;2022-07-23T14:02:32;5.45;;;5.05;;
55776;SDS011;54079;44.540;18.784;2022-07-23T14:04:58;5.50;;;4.90;;
55776;SDS011;54079;44.540;18.784;2022-07-23T14:07:24;5.47;;;4.95;;
55776;SDS011;54079;44.540;18.784;2022-07-23T14:09:50;5.45;;;4.95;;
55776;SDS011;54079;44.540;18.784;2022-07-23T14:12:16;6.43;;;4.93;;
55776;SDS011;54079;44.540;18.784;2022-07-23T14:14:42;5.60;;;5.10;;
55776;SDS011;54079;44.540;18.784;2022-07-23T14:17:08;5.40;;;4.90;;
55776;SDS011;54079;44.540;18.784;2022-07-23T14:19:34;5.20;;;4.70;;
55776;SDS011;54079;44.540;18.784;2022-07-23T14:22:00;5.82;;;5.32;;
55776;SDS011;54079;44.540;18.784;2022-07-23T14:24:26;5.07;;;4.00;;
55776;SDS011;54079;44.540;18.784;2022-07-23T14:26:52;5.40;;;4.90;;
55776;SDS011;54079;44.540;18.784;2022-07-23T14:29:18;5.88;;;5.35;;
55776;SDS011;54079;44.540;18.784;2022-07-23T14:31:44;5.68;;;4.65;;
55776;SDS011;54079;44.540;18.784;2022-07-23T14:34:10;4.85;;;4.45;;
55776;SDS011;54079;44.540;18.784;2022-07-23T14:36:37;5.13;;;4.53;;
55776;SDS011;54079;44.540;18.784;2022-07-23T14:39:03;4.55;;;4.25;;
55776;SDS011;54079;44.540;18.784;2022-07-23T14:41:29;5.38;;;4.47;;
55776;SDS011;54079;44.540;18.784;2022-07-23T14:43:55;4.55;;;4.18;;
55776;SDS011;54079;44.540;18.784;2022-07-23T14:46:21;6.38;;;4.28;;
55776;SDS011;54079;44.540;18.784;2022-07-23T14:48:47;5.95;;;4.82;;
55776;SDS011;54079;44.540;18.784;2022-07-23T14:51:13;5.80;;;4.70;;
55776;SDS011;54079;44.540;18.784;2022-07-23T14:53:39;5.80;;;5.30;;
55776;SDS011;54079;44.540;18.784;2022-07-23T14:56:05;5.18;;;4.40;;
55776;SDS011;54079;44.540;18.784;2022-07-23T14:58:31;7.05;;;4.45;;
55776;SDS011;54079;44.540;18.784;2022-07-23T15:00:57;5.95;;;4.47;;
55776;SDS011;54079;44.540;18.784;2022-07-23T15:03:23;5.72;;;4.68;;
55776;SDS011;54079;44.540;18.784;2022-07-23T15:05:49;5.13;;;4.72;;
55776;SDS011;54079;44.540;18.784;2022-07-23T15:08:16;4.90;;;4.50;;
55776;SDS011;54079;44.540;18.784;2022-07-23T15:10:43;6.03;;;4.55;;
55776;SDS011;54079;44.540;18.784;2022-07-23T15:13:09;5.00;;;4.50;;
55776;SDS011;54079;44.540;18.784;2022-07-23T15:15:35;7.13;;;4.85;;
55776;SDS011;54079;44.540;18.784;2022-07-23T15:18:02;4.10;;;3.78;;
55776;SDS011;54079;44.540;18.784;2022-07-23T15:20:28;5.10;;;4.60;;
55776;SDS011;54079;44.540;18.784;2022-07-23T15:22:54;4.88;;;4.25;;
55776;SDS011;54079;44.540;18.784;2022-07-23T15:25:20;5.68;;;4.95;;
55776;SDS011;54079;44.540;18.784;2022-07-23T15:27:46;4.70;;;4.20;;
55776;SDS011;54079;44.540;18.784;2022-07-23T15:30:12;4.50;;;4.10;;
55776;SDS011;54079;44.540;18.784;2022-07-23T15:32:38;4.97;;;4.43;;
55776;SDS011;54079;44.540;18.784;2022-07-23T15:35:04;5.30;;;4.15;;